Terminal Aerodrome Forecast
Issued by NWS

Home | Current Version | Previous Version | Text Only | Print | Product List | Glossary On
Versions: 1 2 3 4 5 6 7 8 9 10 11 12
000
FTUS45 KREV 260123 RRA
TAFCXP
TAF
KCXP 260123Z 2601/2624 27010G18KT P6SM SCT080 BKN150
     FM260400 29009KT P6SM SCT150
     FM260800 VRB03KT P6SM SKC
     FM261900 23012G24KT P6SM FEW080 SCT200=

USA.gov is the U.S. government's official web portal to all federal, state and local government web resources and services.